KCVG/CVG METAR and TAF weather

Enter ICAO airport designator
Station Type Date Time Source
KCVG METAR 2018/06/25 01:52 UTC NOAA

KCVG 250152Z 27005KT 10SM BKN140 24/18 A3001 RMK AO2 SLP151 T02440183 $


Station Type Date Time Source
KCVG Decoded METAR 2018/06/25 01:52 UTC NOAA

CINCINNATI/NORTHERN KY INTERNATIONAL , KY, United States (KCVG) 39-03N 084-40W 269M
Jun 24, 2018 - 09:52 PM EDT / 2018.06.25 0152 UTC
Wind: from the W (270 degrees) at 6 MPH (5 KT):0
Visibility: 10 mile(s):0
Sky conditions: mostly cloudy
Temperature: 75.9 F (24.4 C)
Dew Point: 64.9 F (18.3 C)
Relative Humidity: 68%
Pressure (altimeter): 30.01 in. Hg (1016 hPa)
ob: KCVG 250152Z 27005KT 10SM BKN140 24/18 A3001 RMK AO2 SLP151 T02440183
cycle: 2

Station Type Date Time Source
KCVG TAF 2018/06/24 21:58 UTC NOAA

TAF
AMD KCVG 242055Z 2421/2524 29009KT P6SM SCT050
FM250100 VRB03KT P6SM SCT250
FM250500 05005KT P6SM BKN120
FM251200 08008KT P6SM VCSH BKN050
FM251800 07009KT P6SM SCT050 BKN250


Example: see airport list